Terminal Aerodrome Forecast
Issued by NWS Cleveland, OH

Home | Current Version | Previous Version | Text Only | Print | Product List | Glossary On
Versions: 1 2 3 4 5 6 7 8 9 10 11 12 13 14 15 16 17 18 19
000
FTUS41 KCLE 030534
TAFCAK
TAF
KCAK 030534Z 0306/0406 08006KT P6SM SCT030 SCT250
      TEMPO 0309/0312 BKN030
     FM031200 10008KT P6SM BKN030
     FM031800 10006KT P6SM SCT040 BKN250=

USA.gov is the U.S. government's official web portal to all federal, state and local government web resources and services.